Time;durP1;ratioP1;P1;durP2;ratioP2;P2;SDS_P1;SDS_P2;PMS_P1;PMS_P2;Temp;Humidity;BMP_temperature;BMP_pressure;BME280_temperature;BME280_humidity;BME280_pressure;Samples;Min_cycle;Max_cycle;Signal;HPM_P1;HPM_P2
2021/08/23 02:48:28;;;;;;;;;;;15.60;99.90;;;;;;5;36054278;41266397;-86
2021/08/23 02:51:45;;;;;;;;;;;15.60;99.90;;;;;;5;36015995;41266137;-85
2021/08/23 02:55:05;;;;;;;;;;;15.50;99.90;;;;;;5;36015408;41267823;-85
2021/08/23 02:58:24;;;;;;;;;;;15.60;99.90;;;;;;5;36013316;41266988;-87
2021/08/23 03:01:38;;;;;;;;;;;15.60;99.90;;;;;;5;36014372;41265859;-87
2021/08/23 03:04:57;;;;;;;;;;;15.60;99.90;;;;;;5;36014043;42016083;-87
2021/08/23 03:08:17;;;;;;;;;;;15.60;99.90;;;;;;5;36013367;41266832;-87
2021/08/23 03:11:36;;;;;;;;;;;15.50;99.90;;;;;;5;36013705;41266297;-87
2021/08/23 03:14:50;;;;;;;;;;;15.60;99.90;;;;;;5;36012911;41265924;-87
2021/08/23 03:18:08;;;;;;;;;;;15.50;99.90;;;;;;5;36013562;41266643;-87
2021/08/23 03:21:28;;;;;;;;;;;15.50;99.90;;;;;;5;36013232;41265767;-86
2021/08/23 03:24:47;;;;;;;;;;;15.50;99.90;;;;;;5;36013946;41265980;-86
2021/08/23 03:28:01;;;;;;;;;;;15.60;99.90;;;;;;5;36013948;41265467;-86
2021/08/23 03:31:18;;;;;;;;;;;15.50;99.90;;;;;;5;36013656;41265697;-86
2021/08/23 03:34:38;;;;;;;;;;;15.60;99.90;;;;;;5;36013349;41266189;-86
2021/08/23 03:38:01;;;;;;;;;;;15.60;99.90;;;;;;5;36013111;42015938;-87
2021/08/23 03:41:16;;;;;;;;;;;15.60;99.90;;;;;;5;36014291;41266421;-86
2021/08/23 03:44:33;;;;;;;;;;;15.60;99.90;;;;;;5;36013747;41266105;-89
2021/08/23 03:47:53;;;;;;;;;;;15.60;99.90;;;;;;5;36015201;41266897;-88
2021/08/23 03:51:12;;;;;;;;;;;15.50;99.90;;;;;;5;36014795;41265604;-87
2021/08/23 03:54:26;;;;;;;;;;;15.50;99.90;;;;;;5;36014217;41266278;-89
2021/08/23 03:57:43;;;;;;;;;;;15.50;99.90;;;;;;5;36013105;41266945;-87
2021/08/23 04:01:03;;;;;;;;;;;15.60;99.90;;;;;;5;36013503;41266286;-87
2021/08/23 04:04:22;;;;;;;;;;;15.50;99.90;;;;;;5;36015265;41266668;-88
2021/08/23 04:07:36;;;;;;;;;;;15.50;99.90;;;;;;5;36013958;41265572;-88
2021/08/23 04:10:55;;;;;;;;;;;15.50;99.90;;;;;;5;36013287;42016573;-88
2021/08/23 04:14:15;;;;;;;;;;;15.60;99.90;;;;;;5;36014084;41265657;-88
2021/08/23 04:17:34;;;;;;;;;;;15.60;99.90;;;;;;5;36013285;41266211;-87
2021/08/23 04:20:48;;;;;;;;;;;15.50;99.90;;;;;;5;36014297;41266131;-88
2021/08/23 04:24:05;;;;;;;;;;;15.50;99.90;;;;;;5;36014278;41265958;-88
2021/08/23 04:27:25;;;;;;;;;;;15.40;99.90;;;;;;5;36014048;41265619;-87
2021/08/23 04:30:44;;;;;;;;;;;15.40;99.90;;;;;;5;36014126;41265124;-87
2021/08/23 04:33:58;;;;;;;;;;;15.30;99.90;;;;;;5;36014350;41265435;-86
2021/08/23 04:37:15;;;;;;;;;;;15.20;99.90;;;;;;5;36014113;41265836;-88
2021/08/23 04:40:35;;;;;;;;;;;15.20;99.90;;;;;;5;36013628;41266345;-87
2021/08/23 04:43:56;;;;;;;;;;;15.10;99.90;;;;;;5;36014096;42015512;-87
2021/08/23 04:47:10;;;;;;;;;;;15.20;99.90;;;;;;5;36014242;41265857;-87
2021/08/23 04:50:27;;;;;;;;;;;15.30;99.90;;;;;;5;36013477;41265967;-87
2021/08/23 04:53:47;;;;;;;;;;;15.30;99.90;;;;;;5;36013569;41266553;-87
2021/08/23 04:57:06;;;;;;;;;;;15.20;99.90;;;;;;5;36014194;41265833;-88
2021/08/23 05:00:20;;;;;;;;;;;15.20;99.90;;;;;;5;36015732;41266934;-86
2021/08/23 05:03:38;;;;;;;;;;;15.20;99.90;;;;;;5;36013173;41266595;-88
2021/08/23 05:06:57;;;;;;;;;;;15.20;99.90;;;;;;5;36013688;41266579;-87
2021/08/23 05:10:16;;;;;;;;;;;15.20;99.90;;;;;;5;36013333;41267400;-88
2021/08/23 05:13:30;;;;;;;;;;;15.20;99.90;;;;;;5;36014379;41265906;-88
2021/08/23 05:16:49;;;;;;;;;;;15.20;99.90;;;;;;5;36013621;42015792;-88
2021/08/23 05:20:09;;;;;;;;;;;15.20;99.90;;;;;;5;36014436;41265360;-87
2021/08/23 05:23:28;;;;;;;;;;;15.30;99.90;;;;;;5;36013400;41265766;-88
2021/08/23 05:26:42;;;;;;;;;;;15.40;99.90;;;;;;5;36013218;41267111;-87
2021/08/23 05:30:00;;;;;;;;;;;15.40;99.90;;;;;;5;36014507;41265712;-87
2021/08/23 05:33:20;;;;;;;;;;;15.40;99.90;;;;;;5;36015126;41265667;-87
2021/08/23 05:36:39;;;;;;;;;;;15.50;99.90;;;;;;5;36014038;41265380;-86
2021/08/23 05:39:53;;;;;;;;;;;15.50;99.90;;;;;;5;36013719;41265319;-87
2021/08/23 05:43:10;;;;;;;;;;;15.60;99.90;;;;;;5;36013630;41266620;-86
2021/08/23 05:46:30;;;;;;;;;;;15.80;99.90;;;;;;5;36014135;41267759;-88
2021/08/23 05:49:51;;;;;;;;;;;15.90;99.90;;;;;;5;36013047;42016202;-87
2021/08/23 05:53:05;;;;;;;;;;;16.00;99.90;;;;;;5;36013280;41266447;-88
2021/08/23 05:56:22;;;;;;;;;;;16.00;99.90;;;;;;5;36013231;41266037;-87
2021/08/23 05:59:41;;;;;;;;;;;16.20;99.90;;;;;;5;36014944;41265669;-87
2021/08/23 06:03:01;;;;;;;;;;;16.30;99.90;;;;;;5;36014042;41266195;-87
2021/08/23 06:06:15;;;;;;;;;;;16.40;99.90;;;;;;5;36014062;41265902;-88
2021/08/23 06:09:33;;;;;;;;;;;16.60;99.90;;;;;;5;36014436;41265241;-88
2021/08/23 06:12:52;;;;;;;;;;;16.70;99.90;;;;;;5;36013721;41265758;-87
2021/08/23 06:16:12;;;;;;;;;;;16.90;99.90;;;;;;5;36014120;41265897;-88
2021/08/23 06:19:26;;;;;;;;;;;17.00;99.90;;;;;;5;36014105;41265462;-87
2021/08/23 06:22:46;;;;;;;;;;;17.20;99.90;;;;;;5;36014666;42015657;-88
2021/08/23 06:26:06;;;;;;;;;;;17.20;99.90;;;;;;5;36014405;41266169;-86
2021/08/23 06:29:25;;;;;;;;;;;17.40;99.90;;;;;;5;36014108;41265156;-87
2021/08/23 06:32:39;;;;;;;;;;;17.60;99.90;;;;;;5;36013459;41266566;-88
2021/08/23 06:35:57;;;;;;;;;;;17.80;99.90;;;;;;5;36014114;41266255;-87
2021/08/23 06:39:16;;;;;;;;;;;18.00;99.90;;;;;;5;36013054;41266110;-88
2021/08/23 06:42:36;;;;;;;;;;;18.30;99.90;;;;;;5;36013144;41266232;-87
2021/08/23 06:45:51;;;;;;;;;;;18.60;99.90;;;;;;5;36015052;41265969;-86
2021/08/23 06:49:08;;;;;;;;;;;18.80;99.90;;;;;;5;36014084;41265680;-88
2021/08/23 06:52:27;;;;;;;;;;;18.70;99.90;;;;;;5;36013332;41265611;-87
2021/08/23 06:55:48;;;;;;;;;;;18.80;99.90;;;;;;5;36013965;42015861;-87
2021/08/23 06:59:02;;;;;;;;;;;18.90;99.90;;;;;;5;36013686;41266064;-87
2021/08/23 07:02:19;;;;;;;;;;;18.90;99.90;;;;;;5;36013776;41266144;-86
2021/08/23 07:05:39;;;;;;;;;;;18.90;99.90;;;;;;5;36014487;41266271;-87
2021/08/23 07:08:58;;;;;;;;;;;18.90;99.90;;;;;;5;36014226;41266841;-89
2021/08/23 07:12:12;;;;;;;;;;;19.00;99.90;;;;;;5;36015270;41265840;-86
2021/08/23 07:15:30;;;;;;;;;;;19.20;99.90;;;;;;5;36013310;41266467;-86
2021/08/23 07:18:49;;;;;;;;;;;19.40;99.90;;;;;;5;36013708;41266319;-86
2021/08/23 07:22:15;;;;;;;;;;;19.70;99.10;;;;;;5;36013884;41266143;-87
2021/08/23 07:25:29;;;;;;;;;;;20.00;97.50;;;;;;5;36014345;41266474;-87
2021/08/23 07:28:47;;;;;;;;;;;20.50;95.00;;;;;;5;36014371;42015720;-87
2021/08/23 07:32:07;;;;;;;;;;;21.80;92.40;;;;;;5;36016192;41266293;-88
2021/08/23 07:35:27;;;;;;;;;;;24.20;87.70;;;;;;5;36014861;41266387;-87
2021/08/23 07:38:41;;;;;;;;;;;26.40;73.40;;;;;;5;36013789;41266439;-87
2021/08/23 07:41:58;;;;;;;;;;;28.30;67.30;;;;;;5;36013368;41266936;-87
2021/08/23 07:45:18;;;;;;;;;;;30.10;60.00;;;;;;5;36013376;41266454;-86
2021/08/23 07:48:37;;;;;;;;;;;31.50;54.80;;;;;;5;36013750;41265526;-86
2021/08/23 07:51:52;;;;;;;;;;;31.80;52.80;;;;;;5;36013473;41266177;-87
2021/08/23 07:55:09;;;;;;;;;;;33.00;50.70;;;;;;5;36014931;41266549;-87
2021/08/23 07:58:29;;;;;;;;;;;34.50;49.60;;;;;;5;36016176;41265569;-87
2021/08/23 08:01:50;;;;;;;;;;;35.40;45.50;;;;;;5;36013539;42016115;-85
2021/08/23 08:05:04;;;;;;;;;;;36.40;43.00;;;;;;5;36013671;41265275;-87
2021/08/23 08:08:21;;;;;;;;;;;35.20;44.50;;;;;;5;36013270;41265271;-88
2021/08/23 08:11:41;;;;;;;;;;;35.80;42.90;;;;;;5;36013457;41265735;-88
2021/08/23 08:15:00;;;;;;;;;;;37.50;42.90;;;;;;5;36013164;41267608;-88
2021/08/23 08:18:14;;;;;;;;;;;38.20;39.60;;;;;;5;36014538;41265944;-88
2021/08/23 08:21:31;;;;;;;;;;;36.80;39.70;;;;;;5;36014245;41266333;-87
2021/08/23 08:24:51;;;;;;;;;;;36.40;41.50;;;;;;5;36013908;41265098;-89
2021/08/23 08:28:11;;;;;;;;;;;37.70;41.30;;;;;;5;36013807;41265409;-90
2021/08/23 08:31:25;;;;;;;;;;;39.50;39.20;;;;;;5;36014350;41267022;-88
2021/08/23 08:34:44;;;;;;;;;;;41.20;37.40;;;;;;5;36013855;42015194;-87
2021/08/23 08:38:03;;;;;;;;;;;41.70;34.90;;;;;;5;36014707;41265511;-90
2021/08/23 08:41:23;;;;;;;;;;;41.50;35.40;;;;;;5;36013131;41268328;-88
2021/08/23 08:44:37;;;;;;;;;;;39.80;36.50;;;;;;5;36014681;41266120;-89
2021/08/23 08:47:56;;;;;;;;;;;37.00;38.40;;;;;;5;36013485;41266424;-88
2021/08/23 08:51:16;;;;;;;;;;;34.20;42.40;;;;;;5;36013160;41266441;-87
2021/08/23 08:54:35;;;;;;;;;;;31.60;45.10;;;;;;5;36012713;41266919;-90
2021/08/23 08:57:50;;;;;;;;;;;29.50;48.40;;;;;;5;36013379;41264812;-88
2021/08/23 09:01:07;;;;;;;;;;;28.10;51.40;;;;;;5;36013438;41265440;-89
2021/08/23 09:04:27;;;;;;;;;;;27.00;53.80;;;;;;5;36012792;41265557;-88
2021/08/23 09:07:51;;;;;;;;;;;25.80;56.60;;;;;;5;36013040;42015798;-88
2021/08/23 09:11:09;;;;;;;;;;;25.20;57.60;;;;;;5;36013407;41265403;-88
2021/08/23 09:14:27;;;;;;;;;;;24.90;60.00;;;;;;5;36012838;41266604;-89
2021/08/23 09:17:46;;;;;;;;;;;24.60;60.10;;;;;;5;36014243;41265929;-89
2021/08/23 09:21:07;;;;;;;;;;;24.50;60.70;;;;;;5;36013602;41264830;-87
2021/08/23 09:24:21;;;;;;;;;;;24.50;60.00;;;;;;5;36014138;41265641;-91
2021/08/23 09:27:38;;;;;;;;;;;24.50;60.80;;;;;;5;36014842;41265198;-89
2021/08/23 09:31:01;;;;;;;;;;;24.60;61.60;;;;;;5;36013355;41266045;-89
2021/08/23 09:34:21;;;;;;;;;;;25.10;60.50;;;;;;5;36012955;41265704;-90
2021/08/23 09:37:35;;;;;;;;;;;25.80;59.40;;;;;;5;36013127;41265913;-88
2021/08/23 09:41:01;;;;;;;;;;;27.10;57.10;;;;;;5;36014592;42016847;-89
2021/08/23 09:44:20;;;;;;;;;;;28.00;55.70;;;;;;5;36014881;41267165;-88
2021/08/23 09:47:39;;;;;;;;;;;29.10;54.10;;;;;;5;36015002;41265796;-85
2021/08/23 09:50:53;;;;;;;;;;;31.50;49.90;;;;;;5;36015200;41265979;-85
2021/08/23 09:54:12;;;;;;;;;;;34.90;41.90;;;;;;5;36013527;41266299;-84
2021/08/23 09:57:32;;;;;;;;;;;35.70;40.40;;;;;;5;36014117;41266807;-85
2021/08/23 10:00:52;;;;;;;;;;;35.80;40.30;;;;;;5;36015125;41265906;-85
2021/08/23 10:04:09;;;;;;;;;;;36.70;40.00;;;;;;5;36014139;41267295;-85
2021/08/23 10:07:29;;;;;;;;;;;37.10;39.40;;;;;;5;36013488;41267326;-85
2021/08/23 10:10:49;;;;;;;;;;;36.30;40.40;;;;;;5;36014875;41266163;-85
2021/08/23 10:14:10;;;;;;;;;;;37.10;40.00;;;;;;5;36015022;42016158;-85
2021/08/23 10:17:25;;;;;;;;;;;38.20;37.60;;;;;;5;36015748;41266281;-85
2021/08/23 10:20:42;;;;;;;;;;;39.00;38.10;;;;;;5;36014642;41267771;-85
2021/08/23 10:24:02;;;;;;;;;;;40.60;36.30;;;;;;5;36014385;41268195;-85
2021/08/23 10:27:25;;;;;;;;;;;40.50;34.20;;;;;;5;36015123;41266461;-85
2021/08/23 10:30:39;;;;;;;;;;;39.30;36.00;;;;;;5;36014702;41266782;-85
2021/08/23 10:33:56;;;;;;;;;;;40.40;34.80;;;;;;5;36015365;41265839;-85
2021/08/23 10:37:20;;;;;;;;;;;41.80;34.30;;;;;;5;36014021;41266980;-85
2021/08/23 10:40:39;;;;;;;;;;;44.00;32.80;;;;;;5;36013876;41265823;-84
2021/08/23 10:43:56;;;;;;;;;;;44.90;31.50;;;;;;5;36014934;41267252;-85
2021/08/23 10:47:15;;;;;;;;;;;45.20;31.80;;;;;;5;36014950;42016947;-85
2021/08/23 10:50:36;;;;;;;;;;;45.70;31.60;;;;;;5;36013244;41266916;-85
2021/08/23 10:53:56;;;;;;;;;;;44.80;31.30;;;;;;5;36014723;41266803;-86
2021/08/23 10:57:12;;;;;;;;;;;44.90;31.40;;;;;;5;36017255;41269353;-85
2021/08/23 11:00:34;;;;;;;;;;;46.50;30.90;;;;;;5;36013754;41267151;-86
2021/08/23 11:04:03;;;;;;;;;;;47.70;31.10;;;;;;5;36012997;41267629;-90
2021/08/23 11:07:26;;;;;;;;;;;48.10;29.80;;;;;;5;36012900;41268331;-90
2021/08/23 11:10:40;;;;;;;;;;;46.70;30.00;;;;;;5;36016872;41268865;-88
2021/08/23 11:13:58;;;;;;;;;;;45.50;30.00;;;;;;5;36013251;41266982;-87
2021/08/23 11:17:27;;;;;;;;;;;44.40;30.80;;;;;;5;36014497;41266981;-87
2021/08/23 11:20:51;;;;;;;;;;;43.00;32.10;;;;;;5;36015452;42015900;-89
2021/08/23 11:24:06;;;;;;;;;;;41.30;31.50;;;;;;5;36013760;41266048;-90
2021/08/23 11:27:23;;;;;;;;;;;39.90;33.70;;;;;;5;36014111;41266667;-90
2021/08/23 11:30:44;;;;;;;;;;;39.30;35.00;;;;;;5;36013688;41266557;-89
2021/08/23 11:34:04;;;;;;;;;;;37.30;37.10;;;;;;5;36014734;41265506;-90
2021/08/23 11:37:22;;;;;;;;;;;35.40;38.90;;;;;;5;36013982;41267164;-90
2021/08/23 11:40:40;;;;;;;;;;;33.80;41.20;;;;;;5;36013498;41266158;-89
2021/08/23 11:44:02;;;;;;;;;;;32.80;42.70;;;;;;5;36013483;41265674;-89
2021/08/23 11:47:31;;;;;;;;;;;34.20;42.20;;;;;;5;36015034;41265905;-89
2021/08/23 11:50:46;;;;;;;;;;;36.90;38.00;;;;;;5;36014050;41265688;-88
2021/08/23 11:54:05;;;;;;;;;;;38.70;36.10;;;;;;5;36013518;42016401;-88
2021/08/23 11:57:25;;;;;;;;;;;40.70;35.30;;;;;;5;36013616;41266062;-89
2021/08/23 12:01:22;;;;;;;;;;;41.80;33.90;;;;;;5;36013687;41266508;-89
2021/08/23 12:04:36;;;;;;;;;;;42.00;34.30;;;;;;5;36013835;41265689;-89
2021/08/23 12:07:53;;;;;;;;;;;42.70;32.50;;;;;;5;36013843;41267016;-90
2021/08/23 12:11:14;;;;;;;;;;;41.50;33.10;;;;;;5;36014976;41266427;-91
2021/08/23 12:14:33;;;;;;;;;;;40.30;34.60;;;;;;5;36013961;41265568;-90
2021/08/23 12:17:47;;;;;;;;;;;39.60;35.10;;;;;;5;36013645;41266077;-90
2021/08/23 12:21:19;;;;;;;;;;;39.50;34.70;;;;;;5;36015701;41267300;-90
2021/08/23 12:24:38;;;;;;;;;;;39.30;34.70;;;;;;5;36014133;41266415;-90
2021/08/23 12:27:59;;;;;;;;;;;39.30;34.70;;;;;;5;36014271;42015983;-90
2021/08/23 12:31:13;;;;;;;;;;;40.00;35.00;;;;;;5;36014417;41265896;-91
2021/08/23 12:34:33;;;;;;;;;;;41.10;33.40;;;;;;5;36014151;41266045;-90
2021/08/23 12:37:52;;;;;;;;;;;41.80;33.00;;;;;;5;36013030;41266836;-90
2021/08/23 12:41:12;;;;;;;;;;;41.90;32.20;;;;;;5;36012909;41266384;-90
2021/08/23 12:44:26;;;;;;;;;;;41.80;32.30;;;;;;5;36014905;41265562;-90
2021/08/23 12:47:43;;;;;;;;;;;41.10;32.60;;;;;;5;36013630;41266098;-90
2021/08/23 12:51:04;;;;;;;;;;;41.00;32.60;;;;;;5;36014777;41267622;-90
2021/08/23 12:54:23;;;;;;;;;;;40.00;33.20;;;;;;5;36015138;41266284;-89
2021/08/23 12:57:37;;;;;;;;;;;39.60;32.50;;;;;;5;36015299;41266431;-90
2021/08/23 13:00:57;;;;;;;;;;;39.20;33.30;;;;;;5;36014720;42016794;-89
2021/08/23 13:04:17;;;;;;;;;;;39.10;34.40;;;;;;5;36013715;41266555;-89
2021/08/23 13:07:36;;;;;;;;;;;39.30;34.50;;;;;;5;36015036;41265608;-89
2021/08/23 13:10:51;;;;;;;;;;;39.10;33.80;;;;;;5;36014701;41266458;-89
2021/08/23 13:14:08;;;;;;;;;;;38.40;35.40;;;;;;5;36014060;41265254;-89
2021/08/23 13:17:27;;;;;;;;;;;36.70;36.40;;;;;;5;36013228;41266713;-89
2021/08/23 13:20:47;;;;;;;;;;;35.60;37.30;;;;;;5;36013930;41266186;-91
2021/08/23 13:24:01;;;;;;;;;;;34.50;38.10;;;;;;5;36015089;41265961;-89
2021/08/23 13:27:18;;;;;;;;;;;33.70;39.70;;;;;;5;36014289;41265987;-90
2021/08/23 13:30:37;;;;;;;;;;;33.40;39.80;;;;;;5;36015562;41267013;-89
2021/08/23 13:33:58;;;;;;;;;;;33.60;39.60;;;;;;5;36015162;42016069;-90
2021/08/23 13:37:12;;;;;;;;;;;34.00;39.30;;;;;;5;36014768;41265260;-91
2021/08/23 13:40:30;;;;;;;;;;;34.30;39.10;;;;;;5;36014950;41265391;-89
2021/08/23 13:43:50;;;;;;;;;;;34.60;38.30;;;;;;5;36014658;41266115;-89
2021/08/23 13:47:09;;;;;;;;;;;34.50;37.80;;;;;;5;36013752;41266966;-91
2021/08/23 13:50:23;;;;;;;;;;;34.20;39.50;;;;;;5;36014395;41267563;-91
2021/08/23 13:53:42;;;;;;;;;;;34.00;39.00;;;;;;5;36013082;41267051;-90
2021/08/23 13:57:01;;;;;;;;;;;33.10;39.60;;;;;;5;36013289;41266721;-90
2021/08/23 14:00:21;;;;;;;;;;;32.20;40.50;;;;;;5;36013266;41266191;-91
2021/08/23 14:03:36;;;;;;;;;;;31.40;43.00;;;;;;5;36014488;41266306;-92
2021/08/23 14:06:54;;;;;;;;;;;30.90;42.40;;;;;;5;36013921;42015650;-92
2021/08/23 14:10:15;;;;;;;;;;;30.60;44.10;;;;;;5;36013984;41266940;-91
2021/08/23 14:13:34;;;;;;;;;;;30.30;44.50;;;;;;5;36014129;41266317;-91
2021/08/23 14:16:48;;;;;;;;;;;30.00;44.80;;;;;;5;36014634;41266065;-90
2021/08/23 14:20:09;;;;;;;;;;;29.80;45.40;;;;;;5;36014800;41265646;-90
2021/08/23 14:23:28;;;;;;;;;;;29.50;45.40;;;;;;5;36013773;41266099;-90
2021/08/23 14:26:48;;;;;;;;;;;29.20;46.30;;;;;;5;36013262;41266586;-90
2021/08/23 14:30:02;;;;;;;;;;;28.90;47.00;;;;;;5;36013721;41267057;-91
2021/08/23 14:33:19;;;;;;;;;;;28.60;46.30;;;;;;5;36013749;41266597;-90
2021/08/23 14:36:39;;;;;;;;;;;28.20;47.50;;;;;;5;36014470;41265630;-91
2021/08/23 14:40:00;;;;;;;;;;;28.00;47.20;;;;;;5;36014170;42016595;-90
2021/08/23 14:43:14;;;;;;;;;;;27.80;48.60;;;;;;5;36014950;41266291;-91
2021/08/23 14:46:31;;;;;;;;;;;27.60;49.60;;;;;;5;36013667;41266425;-90
2021/08/23 14:49:51;;;;;;;;;;;27.30;49.90;;;;;;5;36013726;41266704;-90
2021/08/23 14:53:10;;;;;;;;;;;27.20;49.40;;;;;;5;36014266;41265891;-90
2021/08/23 14:56:24;;;;;;;;;;;27.10;50.70;;;;;;5;36013397;41267209;-90
2021/08/23 14:59:41;;;;;;;;;;;27.00;50.90;;;;;;5;36013309;41266573;-91
2021/08/23 15:03:01;;;;;;;;;;;27.10;50.80;;;;;;5;36014524;41266512;-91
2021/08/23 15:06:20;;;;;;;;;;;27.00;50.60;;;;;;5;36013767;41266714;-90
2021/08/23 15:09:34;;;;;;;;;;;26.70;52.30;;;;;;5;36014482;41265842;-90
2021/08/23 15:12:53;;;;;;;;;;;26.70;50.70;;;;;;5;36013810;42017947;-90
2021/08/23 15:16:12;;;;;;;;;;;26.80;51.90;;;;;;5;36016029;41266193;-91
2021/08/23 15:19:35;;;;;;;;;;;26.70;51.50;;;;;;5;36013430;41268557;-90
2021/08/23 15:22:49;;;;;;;;;;;26.60;50.80;;;;;;5;36013411;41268126;-87
2021/08/23 15:26:07;;;;;;;;;;;26.40;51.20;;;;;;5;36015109;41265205;-90
2021/08/23 15:29:27;;;;;;;;;;;26.40;52.70;;;;;;5;36014605;41266134;-89
2021/08/23 15:32:46;;;;;;;;;;;26.50;52.80;;;;;;5;36014614;41266599;-90
2021/08/23 15:36:00;;;;;;;;;;;26.50;51.30;;;;;;5;36014005;41267285;-90
2021/08/23 15:39:18;;;;;;;;;;;26.70;51.20;;;;;;5;36013686;41266609;-89
2021/08/23 15:42:37;;;;;;;;;;;26.90;51.70;;;;;;5;36013870;41265952;-91
2021/08/23 15:45:58;;;;;;;;;;;27.00;51.20;;;;;;5;36013246;42018417;-90
2021/08/23 15:49:12;;;;;;;;;;;26.90;50.20;;;;;;5;36015394;41266824;-89
2021/08/23 15:52:29;;;;;;;;;;;26.90;50.80;;;;;;5;36015260;41265691;-90
2021/08/23 15:55:49;;;;;;;;;;;26.90;51.00;;;;;;5;36013656;41265978;-90
2021/08/23 15:59:08;;;;;;;;;;;26.70;50.80;;;;;;5;36014372;41265041;-89
2021/08/23 16:02:22;;;;;;;;;;;26.50;50.80;;;;;;5;36013432;41266822;-89
2021/08/23 16:05:42;;;;;;;;;;;26.10;52.10;;;;;;5;36012467;41266481;-89
2021/08/23 16:09:02;;;;;;;;;;;25.70;52.70;;;;;;5;36014149;41265248;-89
2021/08/23 16:12:21;;;;;;;;;;;25.30;54.10;;;;;;5;36013831;41266038;-89
2021/08/23 16:15:35;;;;;;;;;;;25.00;54.50;;;;;;5;36015015;41266298;-90
2021/08/23 16:18:54;;;;;;;;;;;24.70;54.00;;;;;;5;36014006;42016379;-89
2021/08/23 16:22:14;;;;;;;;;;;24.40;55.60;;;;;;5;36013869;41266454;-89
2021/08/23 16:25:33;;;;;;;;;;;24.10;55.80;;;;;;5;36015688;41265528;-89
2021/08/23 16:28:48;;;;;;;;;;;23.80;57.40;;;;;;5;36013983;41265520;-88
2021/08/23 16:32:05;;;;;;;;;;;23.50;57.90;;;;;;5;36015501;41266273;-89
2021/08/23 16:35:25;;;;;;;;;;;23.40;59.40;;;;;;5;36013174;41266742;-89
2021/08/23 16:38:45;;;;;;;;;;;23.20;61.50;;;;;;5;36014331;41266032;-89
2021/08/23 16:41:59;;;;;;;;;;;23.00;62.40;;;;;;5;36015736;41265944;-89
2021/08/23 16:45:16;;;;;;;;;;;22.90;62.30;;;;;;5;36014578;41265892;-89
2021/08/23 16:48:36;;;;;;;;;;;22.80;62.90;;;;;;5;36014939;41267937;-87
2021/08/23 16:51:57;;;;;;;;;;;22.70;61.80;;;;;;5;36013810;42016604;-89
2021/08/23 16:55:13;;;;;;;;;;;22.70;62.70;;;;;;5;36014876;41266844;-90
2021/08/23 16:58:30;;;;;;;;;;;22.60;62.70;;;;;;5;36013597;41266083;-88
2021/08/23 17:01:50;;;;;;;;;;;22.60;62.70;;;;;;5;36014567;41265990;-87
2021/08/23 17:05:11;;;;;;;;;;;22.60;61.60;;;;;;5;36014641;41266260;-88
2021/08/23 17:08:25;;;;;;;;;;;22.50;65.20;;;;;;5;36014442;41266580;-89
2021/08/23 17:11:43;;;;;;;;;;;22.40;63.60;;;;;;5;36014253;41266757;-89
2021/08/23 17:15:02;;;;;;;;;;;22.30;64.30;;;;;;5;36014562;41266398;-87
2021/08/23 17:18:22;;;;;;;;;;;22.30;65.70;;;;;;5;36013326;41266377;-88
2021/08/23 17:21:36;;;;;;;;;;;22.20;65.50;;;;;;5;36014409;41266672;-86
2021/08/23 17:24:54;;;;;;;;;;;22.20;66.50;;;;;;5;36014309;42015882;-87
2021/08/23 17:28:14;;;;;;;;;;;22.10;67.40;;;;;;5;36013455;41266787;-87
2021/08/23 17:31:33;;;;;;;;;;;22.00;67.30;;;;;;5;36014407;41266489;-87
2021/08/23 17:34:47;;;;;;;;;;;21.90;69.00;;;;;;5;36013610;41267801;-87
2021/08/23 17:38:05;;;;;;;;;;;21.70;68.50;;;;;;5;36012924;41266108;-87
2021/08/23 17:41:25;;;;;;;;;;;21.60;69.50;;;;;;5;36013196;41266307;-87
2021/08/23 17:44:44;;;;;;;;;;;21.50;70.80;;;;;;5;36013646;41266643;-87
2021/08/23 17:47:58;;;;;;;;;;;21.40;71.60;;;;;;5;36013437;41267982;-90
2021/08/23 17:51:16;;;;;;;;;;;21.30;72.40;;;;;;5;36014174;41266931;-88
2021/08/23 17:54:35;;;;;;;;;;;21.20;72.90;;;;;;5;36014183;41266907;-87
2021/08/23 17:57:56;;;;;;;;;;;21.20;72.50;;;;;;5;36013196;42017515;-89
2021/08/23 18:01:11;;;;;;;;;;;21.00;72.90;;;;;;5;36014200;41265852;-87
2021/08/23 18:04:28;;;;;;;;;;;20.90;74.10;;;;;;5;36013733;41268052;-86
2021/08/23 18:07:47;;;;;;;;;;;20.90;73.40;;;;;;5;36013692;41269242;-86
2021/08/23 18:11:07;;;;;;;;;;;20.80;73.80;;;;;;5;36014883;41268041;-87
2021/08/23 18:14:21;;;;;;;;;;;20.70;74.40;;;;;;5;36014145;41267079;-88
2021/08/23 18:17:38;;;;;;;;;;;20.60;74.40;;;;;;5;36013989;41267073;-87
2021/08/23 18:20:58;;;;;;;;;;;20.40;76.30;;;;;;5;36014569;41266760;-87
2021/08/23 18:24:17;;;;;;;;;;;20.30;76.80;;;;;;5;36014298;41266446;-87
2021/08/23 18:27:31;;;;;;;;;;;20.20;77.70;;;;;;5;36015134;41266806;-87
2021/08/23 18:30:50;;;;;;;;;;;20.10;78.10;;;;;;5;36015385;42015854;-88
2021/08/23 18:34:09;;;;;;;;;;;20.00;77.70;;;;;;5;36015469;41266856;-88
2021/08/23 18:37:29;;;;;;;;;;;19.90;78.30;;;;;;5;36013931;41267994;-86
2021/08/23 18:40:43;;;;;;;;;;;19.80;79.70;;;;;;5;36014394;41265258;-92
2021/08/23 18:44:00;;;;;;;;;;;19.80;78.50;;;;;;5;36013210;41266517;-92
2021/08/23 18:47:20;;;;;;;;;;;19.70;78.80;;;;;;5;36014128;41267477;-92
2021/08/23 18:50:39;;;;;;;;;;;19.70;79.70;;;;;;5;36013429;41266307;-92
2021/08/23 18:53:53;;;;;;;;;;;19.70;81.10;;;;;;5;36014917;41266711;-90
2021/08/23 18:57:10;;;;;;;;;;;19.60;82.60;;;;;;5;36013230;41267892;-92
2021/08/23 19:00:30;;;;;;;;;;;19.60;82.40;;;;;;5;36012637;41266341;-92
2021/08/23 19:03:51;;;;;;;;;;;19.50;83.70;;;;;;5;36014714;42015239;-92
2021/08/23 19:07:05;;;;;;;;;;;19.50;82.80;;;;;;5;36014334;41265142;-91
2021/08/23 19:10:22;;;;;;;;;;;19.50;83.50;;;;;;5;36013810;41265538;-92
2021/08/23 19:13:41;;;;;;;;;;;19.50;83.80;;;;;;5;36012926;41265633;-91
2021/08/23 19:17:01;;;;;;;;;;;19.50;83.90;;;;;;5;36012784;41266438;-93
2021/08/23 19:20:15;;;;;;;;;;;19.40;81.60;;;;;;5;36013693;41265619;-92
2021/08/23 19:23:33;;;;;;;;;;;19.40;82.40;;;;;;5;36012661;41265676;-93
2021/08/23 19:26:52;;;;;;;;;;;19.30;82.30;;;;;;5;36014264;41265546;-93
2021/08/23 19:30:11;;;;;;;;;;;19.30;81.20;;;;;;5;36013734;41265129;-92
2021/08/23 19:33:26;;;;;;;;;;;19.20;81.90;;;;;;5;36013792;41266107;-92
2021/08/23 19:36:44;;;;;;;;;;;19.00;82.70;;;;;;5;36013352;42016338;-93
2021/08/23 19:40:04;;;;;;;;;;;19.00;83.10;;;;;;5;36013729;41265675;-92
2021/08/23 19:43:24;;;;;;;;;;;18.80;84.10;;;;;;5;36014506;41265260;-88
2021/08/23 19:46:38;;;;;;;;;;;18.70;85.50;;;;;;5;36015047;41266894;-88
2021/08/23 19:49:56;;;;;;;;;;;18.60;86.40;;;;;;5;36015810;41267230;-88
2021/08/23 19:53:15;;;;;;;;;;;18.50;87.80;;;;;;5;36014731;41266383;-88
2021/08/23 19:56:35;;;;;;;;;;;18.40;88.80;;;;;;5;36013732;41268580;-88
2021/08/23 19:59:50;;;;;;;;;;;18.40;90.00;;;;;;5;36013999;41265980;-89
2021/08/23 20:03:07;;;;;;;;;;;18.30;90.40;;;;;;5;36013405;41268337;-87
2021/08/23 20:06:27;;;;;;;;;;;18.30;90.90;;;;;;5;36014148;41266478;-88
2021/08/23 20:09:48;;;;;;;;;;;18.30;91.10;;;;;;5;36013523;42017136;-89
2021/08/23 20:13:09;;;;;;;;;;;18.20;91.50;;;;;;5;36014589;41266665;-89
2021/08/23 20:16:26;;;;;;;;;;;18.20;91.30;;;;;;5;36014591;41267411;-88
2021/08/23 20:19:46;;;;;;;;;;;18.20;91.40;;;;;;5;36014084;41267224;-88
2021/08/23 20:23:05;;;;;;;;;;;18.10;91.70;;;;;;5;36014950;41266450;-87
2021/08/23 20:26:19;;;;;;;;;;;18.10;91.80;;;;;;5;36014089;41266234;-88
2021/08/23 20:29:37;;;;;;;;;;;18.10;91.60;;;;;;5;36014500;41266126;-86
2021/08/23 20:32:56;;;;;;;;;;;18.10;91.40;;;;;;5;36014060;41266214;-88
2021/08/23 20:40:05;;;;;;;;;;;18.30;92.00;;;;;;5;36013639;41267459;-88
2021/08/23 20:43:28;;;;;;;;;;;18.30;92.30;;;;;;5;36014016;42016854;-88
2021/08/23 20:46:48;;;;;;;;;;;18.30;92.90;;;;;;5;36015651;41265700;-87
2021/08/23 20:50:12;;;;;;;;;;;18.30;93.50;;;;;;5;36013417;41266064;-89
2021/08/23 20:53:27;;;;;;;;;;;18.40;93.80;;;;;;5;36015316;41265779;-88
2021/08/23 20:56:44;;;;;;;;;;;18.40;95.30;;;;;;5;36013283;41265717;-88
2021/08/23 21:00:06;;;;;;;;;;;18.30;97.30;;;;;;5;36014706;41266742;-88
2021/08/23 21:03:25;;;;;;;;;;;18.30;97.70;;;;;;5;36014560;41266162;-88
2021/08/23 21:06:39;;;;;;;;;;;18.30;98.30;;;;;;5;36015937;41266376;-88
2021/08/23 21:09:57;;;;;;;;;;;18.30;99.60;;;;;;5;36014505;41266494;-88
2021/08/23 21:13:16;;;;;;;;;;;18.30;99.10;;;;;;5;36014228;41266141;-88
2021/08/23 21:16:37;;;;;;;;;;;18.30;99.40;;;;;;5;36013154;42016591;-88